createdAt,value
2022-12-01T00:02:29.783Z,99168.50
2022-12-01T00:04:57.838Z,99167.97
2022-12-01T00:07:27.350Z,99133.69
2022-12-01T00:10:12.761Z,99153.78
2022-12-01T00:12:43.629Z,99164.53
2022-12-01T00:15:12.337Z,99155.63
2022-12-01T00:17:42.622Z,99161.91
2022-12-01T00:20:11.700Z,99131.06
2022-12-01T00:22:44.018Z,99155.06
2022-12-01T00:25:12.417Z,99158.44
2022-12-01T00:27:40.931Z,99153.09
2022-12-01T00:30:11.350Z,99158.59
2022-12-01T00:32:39.841Z,99156.81
2022-12-01T00:35:08.132Z,99156.88
2022-12-01T00:37:36.799Z,99138.25
2022-12-01T00:40:07.906Z,99157.72
2022-12-01T00:42:36.000Z,99162.13
2022-12-01T00:45:04.146Z,99153.31
2022-12-01T00:47:32.214Z,99153.31
2022-12-01T00:50:00.213Z,99151.53
2022-12-01T00:52:28.337Z,99149.75
2022-12-01T00:54:56.384Z,99147.16
2022-12-01T00:57:25.772Z,99137.09
2022-12-01T00:59:53.783Z,99144.53
2022-12-01T01:02:21.851Z,99147.88
2022-12-01T01:04:49.932Z,99147.03
2022-12-01T01:07:17.996Z,99136.19
2022-12-01T01:09:46.244Z,99144.47
2022-12-01T01:12:14.514Z,99115.41
2022-12-01T01:14:44.742Z,99147.88
2022-12-01T01:17:12.784Z,99142.44
2022-12-01T01:19:40.778Z,99148.50
2022-12-01T01:22:08.785Z,99129.13
2022-12-01T01:24:36.907Z,99148.66
2022-12-01T01:27:06.115Z,99154.16
2022-12-01T01:29:34.178Z,99163.31
2022-12-01T01:32:04.343Z,99100.91
2022-12-01T01:34:32.472Z,99165.00
2022-12-01T01:37:00.502Z,99132.16
2022-12-01T01:39:28.599Z,99140.50
2022-12-01T01:41:56.615Z,99156.88
2022-12-01T01:44:48.811Z,99164.78
2022-12-01T01:47:21.875Z,99159.06
2022-12-01T01:49:50.718Z,99152.22
2022-12-01T01:52:19.630Z,99162.38
2022-12-01T01:54:50.960Z,99143.69
2022-12-01T01:57:25.162Z,99162.03
2022-12-01T01:59:56.643Z,99110.16
2022-12-01T02:02:26.720Z,99143.44
2022-12-01T02:05:01.820Z,99130.66
2022-12-01T02:07:30.246Z,99153.59
2022-12-01T02:09:58.877Z,99155.53
2022-12-01T02:12:40.720Z,99160.56
2022-12-01T02:15:19.945Z,99161.50
2022-12-01T02:17:59.946Z,99160.81
2022-12-01T02:21:06.306Z,99165.13
2022-12-01T02:24:04.701Z,99165.28
2022-12-01T02:26:43.840Z,99149.94
2022-12-01T02:29:39.772Z,99153.97
2022-12-01T02:32:17.847Z,99149.66
2022-12-01T02:34:56.284Z,99156.78
2022-12-01T02:37:29.562Z,99143.09
2022-12-01T02:40:01.795Z,99148.59
2022-12-01T02:42:53.678Z,99158.78
2022-12-01T02:45:30.411Z,99160.53
2022-12-01T02:48:03.337Z,99161.41
2022-12-01T02:50:35.202Z,99159.22
2022-12-01T02:53:05.318Z,99168.31
2022-12-01T02:55:33.690Z,99163.16
2022-12-01T02:58:01.722Z,99170.69
2022-12-01T03:00:32.169Z,99170.53
2022-12-01T03:03:32.424Z,99162.31
2022-12-01T03:06:09.624Z,99159.78
2022-12-01T03:08:46.260Z,99146.16
2022-12-01T03:11:28.035Z,99167.84
2022-12-01T03:14:10.130Z,99166.22
2022-12-01T03:16:47.089Z,99166.44
2022-12-01T03:19:21.233Z,99154.19
2022-12-01T03:21:54.330Z,99169.97
2022-12-01T03:24:26.089Z,99160.38
2022-12-01T03:26:58.198Z,99161.00
2022-12-01T03:29:30.764Z,99165.66
2022-12-01T03:32:04.510Z,99166.34
2022-12-01T03:34:40.553Z,99167.91
2022-12-01T03:37:13.860Z,99085.06
2022-12-01T03:39:44.929Z,99164.03
2022-12-01T03:42:18.465Z,99162.72
2022-12-01T03:44:50.293Z,99164.28
2022-12-01T03:47:21.866Z,99151.63
2022-12-01T03:49:53.750Z,99158.63
2022-12-01T03:52:33.625Z,99162.16
2022-12-01T03:55:12.033Z,99144.94
2022-12-01T03:57:46.335Z,99144.03
2022-12-01T04:00:17.041Z,99164.56
2022-12-01T04:02:46.016Z,99172.25
2022-12-01T04:05:15.537Z,99168.34
2022-12-01T04:07:43.562Z,99166.41
2022-12-01T04:10:12.105Z,99171.69
2022-12-01T04:12:39.158Z,99173.09
2022-12-01T04:15:10.237Z,99165.88
2022-12-01T04:17:38.261Z,99176.66
2022-12-01T04:20:08.536Z,99175.72
2022-12-01T04:22:38.171Z,99177.16
2022-12-01T04:25:07.784Z,99159.09
2022-12-01T04:27:36.140Z,99178.09
2022-12-01T04:30:05.287Z,99178.94
2022-12-01T04:32:33.308Z,99179.06
2022-12-01T04:35:01.299Z,99164.16
2022-12-01T04:37:29.317Z,99168.97
2022-12-01T04:39:58.698Z,99173.66
2022-12-01T04:42:26.743Z,99167.88
2022-12-01T04:44:54.709Z,99160.19
2022-12-01T04:47:22.834Z,99181.03
2022-12-01T04:49:51.292Z,99159.53
2022-12-01T04:52:19.529Z,99178.91
2022-12-01T04:54:47.547Z,99182.25
2022-12-01T04:57:17.013Z,99176.47
2022-12-01T04:59:45.003Z,99170.69
2022-12-01T05:02:13.038Z,99190.88
2022-12-01T05:04:41.927Z,99187.81
2022-12-01T05:07:10.397Z,99184.13
2022-12-01T05:09:38.914Z,99160.59
2022-12-01T05:12:07.360Z,99189.69
2022-12-01T05:14:36.834Z,99200.16
2022-12-01T05:17:04.881Z,99194.69
2022-12-01T05:19:50.438Z,99192.06
2022-12-01T05:22:36.490Z,99189.19
2022-12-01T05:25:06.878Z,99173.88
2022-12-01T05:27:34.901Z,99191.09
2022-12-01T05:30:04.756Z,99192.72
2022-12-01T05:32:32.762Z,99179.72
2022-12-01T05:35:00.805Z,99176.75
2022-12-01T05:37:33.292Z,99202.88
2022-12-01T05:40:01.485Z,99192.91
2022-12-01T05:42:29.490Z,99187.66
2022-12-01T05:44:57.496Z,99193.53
2022-12-01T05:47:26.955Z,99203.81
2022-12-01T05:49:54.993Z,99194.72
2022-12-01T05:52:23.013Z,99197.44
2022-12-01T05:54:51.048Z,99208.16
2022-12-01T05:57:19.097Z,99205.72
2022-12-01T05:59:47.539Z,99203.09
2022-12-01T06:02:15.936Z,99182.84
2022-12-01T06:04:45.399Z,99198.75
2022-12-01T06:07:13.435Z,99215.09
2022-12-01T06:09:41.870Z,99205.91
2022-12-01T06:12:10.038Z,99211.56
2022-12-01T06:14:38.024Z,99212.25
2022-12-01T06:17:06.042Z,99217.56
2022-12-01T06:19:33.996Z,99198.63
2022-12-01T06:22:03.477Z,99214.19
2022-12-01T06:24:31.577Z,99217.81
2022-12-01T06:26:59.597Z,99207.31
2022-12-01T06:29:27.614Z,99217.91
2022-12-01T06:31:55.670Z,99211.97
2022-12-01T06:34:23.807Z,99216.25
2022-12-01T06:36:51.869Z,99221.38
2022-12-01T06:39:21.314Z,99225.78
2022-12-01T06:41:49.841Z,99215.97
2022-12-01T06:44:17.849Z,99152.94
2022-12-01T06:46:45.887Z,99220.13
2022-12-01T06:49:14.473Z,99216.84
2022-12-01T06:51:42.538Z,99227.09
2022-12-01T06:54:12.777Z,99226.25
2022-12-01T06:56:42.985Z,99182.91
2022-12-01T06:59:11.443Z,99232.03
2022-12-01T07:01:40.006Z,99235.38
2022-12-01T07:04:08.126Z,99237.59
2022-12-01T07:06:36.124Z,99228.69
2022-12-01T07:09:04.472Z,99240.09
2022-12-01T07:11:32.557Z,99242.81
2022-12-01T07:14:01.964Z,99252.91
2022-12-01T07:16:29.994Z,99252.75
2022-12-01T07:19:00.006Z,99244.44
2022-12-01T07:21:28.007Z,99227.94
2022-12-01T07:23:56.082Z,99250.50
2022-12-01T07:26:24.099Z,99256.25
2022-12-01T07:28:52.114Z,99252.72
2022-12-01T07:31:21.514Z,99259.97
2022-12-01T07:33:49.559Z,99261.66
2022-12-01T07:36:17.540Z,99271.47
2022-12-01T07:38:45.741Z,99266.25
2022-12-01T07:41:15.355Z,99258.31
2022-12-01T07:43:43.750Z,99274.00
2022-12-01T07:46:18.755Z,99275.94
2022-12-01T07:48:48.961Z,99272.28
2022-12-01T07:51:17.891Z,99276.59
2022-12-01T07:53:46.926Z,99276.59
2022-12-01T07:56:15.133Z,99284.06
2022-12-01T07:58:43.908Z,99281.72
2022-12-01T08:01:13.917Z,99286.06
2022-12-01T08:03:42.527Z,99275.81
2022-12-01T08:06:12.979Z,99291.63
2022-12-01T08:08:42.418Z,99294.94
2022-12-01T08:11:13.370Z,99293.41
2022-12-01T08:13:42.130Z,99282.59
2022-12-01T08:16:13.503Z,99296.53
2022-12-01T08:18:42.927Z,99302.78
2022-12-01T08:21:13.761Z,99298.84
2022-12-01T08:23:42.793Z,99278.44
2022-12-01T08:26:13.988Z,99270.56
2022-12-01T08:28:42.636Z,99294.94
2022-12-01T08:31:13.016Z,99306.31
2022-12-01T08:33:41.115Z,99303.34
2022-12-01T08:36:09.701Z,99284.91
2022-12-01T08:38:39.128Z,99302.88
2022-12-01T08:41:09.435Z,99296.22
2022-12-01T08:46:28.953Z,99305.03
2022-12-01T08:48:57.954Z,99294.72
2022-12-01T08:51:27.126Z,99307.41
2022-12-01T08:53:58.024Z,99317.75
2022-12-01T08:56:28.011Z,99272.22
2022-12-01T08:58:56.550Z,99312.41
2022-12-01T09:01:25.741Z,99305.03
2022-12-01T09:04:05.883Z,99317.81
2022-12-01T09:06:36.193Z,99318.47
2022-12-01T09:09:06.539Z,99311.75
2022-12-01T09:11:34.554Z,99315.28
2022-12-01T09:14:02.635Z,99312.53
2022-12-01T09:16:30.740Z,99287.19
2022-12-01T09:18:58.933Z,99316.81
2022-12-01T09:21:30.435Z,99319.53
2022-12-01T09:23:58.514Z,99266.47
2022-12-01T09:26:28.964Z,99314.97
2022-12-01T09:28:58.664Z,99318.31
2022-12-01T09:31:26.819Z,99313.06
2022-12-01T09:33:59.127Z,99286.81
2022-12-01T09:36:27.727Z,99319.72
2022-12-01T09:38:55.720Z,99325.81
2022-12-01T09:41:29.419Z,99318.03
2022-12-01T09:44:06.253Z,99312.88
2022-12-01T09:46:41.414Z,99316.63
2022-12-01T09:49:17.011Z,99298.09
2022-12-01T09:51:45.277Z,99312.75
2022-12-01T09:54:15.571Z,99304.88
2022-12-01T09:56:47.518Z,99296.31
2022-12-01T09:59:20.634Z,99307.38
2022-12-01T10:01:53.276Z,99303.63
2022-12-01T10:04:26.956Z,99300.97
2022-12-01T10:07:00.323Z,99304.50
2022-12-01T10:09:34.472Z,99298.09
2022-12-01T10:12:15.171Z,99283.06
2022-12-01T10:14:46.264Z,99292.00
2022-12-01T10:17:23.929Z,99297.47
2022-12-01T10:19:57.600Z,99293.88
2022-12-01T10:22:46.544Z,99273.44
2022-12-01T10:25:23.299Z,99254.59
2022-12-01T10:28:05.839Z,99279.88
2022-12-01T10:30:39.367Z,99264.84
2022-12-01T10:33:18.524Z,99266.41
2022-12-01T10:35:46.622Z,99276.91
2022-12-01T10:38:23.889Z,99276.66
2022-12-01T10:40:53.507Z,99272.19
2022-12-01T10:43:30.438Z,99260.44
2022-12-01T10:45:59.977Z,99264.16
2022-12-01T10:48:28.109Z,99268.13
2022-12-01T10:50:58.234Z,99268.13
2022-12-01T10:53:31.430Z,99263.66
2022-12-01T10:56:03.938Z,99270.66
2022-12-01T10:58:35.362Z,99258.88
2022-12-01T11:01:06.917Z,99238.59
2022-12-01T11:03:37.491Z,99269.97
2022-12-01T11:06:08.431Z,99234.97
2022-12-01T11:08:44.879Z,99255.88
2022-12-01T11:11:30.490Z,99255.88
2022-12-01T11:14:02.881Z,99203.97
2022-12-01T11:16:50.439Z,99259.94
2022-12-01T11:19:27.360Z,99257.88
2022-12-01T11:21:57.849Z,99248.63
2022-12-01T11:24:56.895Z,99248.16
2022-12-01T11:27:27.470Z,99240.16
2022-12-01T11:29:59.754Z,99239.44
2022-12-01T11:32:30.366Z,99246.06
2022-12-01T11:35:00.862Z,99217.50
2022-12-01T11:37:33.533Z,99241.75
2022-12-01T11:40:15.124Z,99239.44
2022-12-01T11:42:47.668Z,99221.97
2022-12-01T11:45:29.206Z,99231.50
2022-12-01T11:48:06.664Z,99245.91
2022-12-01T11:50:36.915Z,99218.00
2022-12-01T11:53:05.810Z,99244.28
2022-12-01T11:55:33.874Z,99236.81
2022-12-01T11:58:05.553Z,99225.44
2022-12-01T12:00:47.017Z,99235.22
2022-12-01T12:03:27.308Z,99228.47
2022-12-01T12:06:38.931Z,99212.03
2022-12-01T12:09:12.595Z,99226.69
2022-12-01T12:11:48.995Z,99222.78
2022-12-01T12:14:46.572Z,99227.88
2022-12-01T12:17:29.525Z,99234.72
2022-12-01T12:20:09.850Z,99232.69
2022-12-01T12:22:54.969Z,99235.56
2022-12-01T12:25:33.588Z,99208.94
2022-12-01T12:28:20.825Z,99233.53
2022-12-01T12:30:58.960Z,99233.00
2022-12-01T12:33:54.263Z,99226.03
2022-12-01T12:36:31.790Z,99236.81
2022-12-01T12:39:16.387Z,99221.84
2022-12-01T12:41:47.686Z,99234.38
2022-12-01T12:44:42.658Z,99231.94
2022-12-01T12:47:32.966Z,99233.44
2022-12-01T12:50:16.409Z,99226.88
2022-12-01T12:52:46.740Z,99217.31
2022-12-01T12:55:20.057Z,99220.97
2022-12-01T12:57:53.668Z,99211.97
2022-12-01T13:00:24.957Z,99202.75
2022-12-01T13:02:58.012Z,99218.38
2022-12-01T13:05:36.286Z,99220.38
2022-12-01T13:08:08.999Z,99221.03
2022-12-01T13:10:44.156Z,99226.63
2022-12-01T13:13:21.814Z,99226.28
2022-12-01T13:15:51.828Z,99223.22
2022-12-01T13:18:29.183Z,99216.22
2022-12-01T13:20:59.596Z,99210.31
2022-12-01T13:23:28.061Z,99213.28
2022-12-01T13:25:59.271Z,99221.56
2022-12-01T13:28:31.160Z,99213.59
2022-12-01T13:31:04.650Z,99200.94
2022-12-01T13:33:34.193Z,99200.47
2022-12-01T13:39:01.554Z,99212.25
2022-12-01T13:41:33.030Z,99212.91
2022-12-01T13:44:04.870Z,99213.34
2022-12-01T13:46:50.709Z,99199.41
2022-12-01T13:49:36.906Z,99218.41
2022-12-01T13:52:28.483Z,99218.00
2022-12-01T13:55:26.332Z,99217.59
2022-12-01T13:58:24.016Z,99215.13
2022-12-01T14:00:52.376Z,99207.25
2022-12-01T14:03:41.168Z,99219.19
2022-12-01T14:06:22.204Z,99225.72
2022-12-01T14:08:55.481Z,99221.44
2022-12-01T14:11:25.709Z,99225.31
2022-12-01T14:13:57.296Z,99225.00
2022-12-01T14:16:26.399Z,99145.34
2022-12-01T14:18:57.034Z,99221.03
2022-12-01T14:21:47.376Z,99216.59
2022-12-01T14:24:25.391Z,99216.03
2022-12-01T14:26:53.916Z,99216.25
2022-12-01T14:29:31.236Z,99212.34
2022-12-01T14:32:23.834Z,99216.03
2022-12-01T14:35:11.495Z,99224.06
2022-12-01T14:37:48.307Z,99212.84
2022-12-01T14:40:23.358Z,99207.50
2022-12-01T14:43:13.902Z,99213.25
2022-12-01T14:45:49.611Z,99229.59
2022-12-01T14:48:21.361Z,99221.69
2022-12-01T14:50:52.891Z,99233.50
2022-12-01T14:53:26.338Z,99218.03
2022-12-01T14:55:58.909Z,99224.47
2022-12-01T14:58:29.569Z,99225.72
2022-12-01T15:01:06.390Z,99224.25
2022-12-01T15:03:38.607Z,99231.69
2022-12-01T15:06:07.296Z,99197.97
2022-12-01T15:08:45.874Z,99233.34
2022-12-01T15:11:25.611Z,99232.69
2022-12-01T15:13:55.286Z,99233.78
2022-12-01T15:16:25.508Z,99240.38
2022-12-01T15:18:54.257Z,99235.56
2022-12-01T15:21:25.043Z,99236.50
2022-12-01T15:23:58.976Z,99237.41
2022-12-01T15:26:31.633Z,99235.63
2022-12-01T15:29:14.568Z,99230.25
2022-12-01T15:31:44.086Z,99241.03
2022-12-01T15:34:17.133Z,99245.75
2022-12-01T15:36:45.957Z,99237.00
2022-12-01T15:39:18.009Z,99248.75
2022-12-01T15:41:53.942Z,99236.38
2022-12-01T15:44:27.474Z,99245.22
2022-12-01T15:46:55.615Z,99156.94
2022-12-01T15:49:29.487Z,99241.06
2022-12-01T15:52:06.913Z,99222.16
2022-12-01T15:54:35.366Z,99232.88
2022-12-01T15:57:06.016Z,99238.06
2022-12-01T15:59:39.110Z,99229.94
2022-12-01T16:02:16.407Z,99248.56
2022-12-01T16:04:44.939Z,99240.69
2022-12-01T16:07:13.496Z,99246.00
2022-12-01T16:09:42.996Z,99247.59
2022-12-01T16:12:24.576Z,99248.97
2022-12-01T16:15:04.139Z,99249.28
2022-12-01T16:17:43.201Z,99239.97
2022-12-01T16:20:24.439Z,99248.25
2022-12-01T16:22:59.008Z,99246.91
2022-12-01T16:25:35.055Z,99242.38
2022-12-01T16:28:06.530Z,99238.59
2022-12-01T16:30:37.884Z,99234.06
2022-12-01T16:33:14.909Z,99234.44
2022-12-01T16:35:42.933Z,99226.75
2022-12-01T16:38:16.553Z,99233.47
2022-12-01T16:40:44.937Z,99234.84
2022-12-01T16:43:16.760Z,99239.72
2022-12-01T16:45:45.266Z,99245.81
2022-12-01T16:48:13.829Z,99252.16
2022-12-01T16:50:41.838Z,99249.53
2022-12-01T16:53:11.529Z,99238.31
2022-12-01T16:55:43.305Z,99240.88
2022-12-01T16:58:11.432Z,99237.28
2022-12-01T17:00:41.173Z,99237.38
2022-12-01T17:03:12.117Z,99243.19
2022-12-01T17:05:40.266Z,99241.66
2022-12-01T17:08:08.511Z,99238.97
2022-12-01T17:10:36.578Z,99235.06
2022-12-01T17:13:04.619Z,99242.44
2022-12-01T17:15:32.652Z,99241.47
2022-12-01T17:18:02.172Z,99243.13
2022-12-01T17:20:30.125Z,99242.38
2022-12-01T17:22:59.183Z,99244.59
2022-12-01T17:25:27.252Z,99239.72
2022-12-01T17:27:55.405Z,99224.56
2022-12-01T17:30:23.391Z,99238.91
2022-12-01T17:32:51.431Z,99229.25
2022-12-01T17:35:21.267Z,99248.06
2022-12-01T17:37:49.319Z,99241.47
2022-12-01T17:40:17.449Z,99251.88
2022-12-01T17:42:50.200Z,99245.03
2022-12-01T17:45:19.100Z,99244.78
2022-12-01T17:47:47.277Z,99238.56
2022-12-01T17:50:15.323Z,99208.63
2022-12-01T17:52:44.877Z,99246.72
2022-12-01T17:55:12.890Z,99251.78
2022-12-01T17:57:40.987Z,99246.38
2022-12-01T18:00:10.308Z,99249.00
2022-12-01T18:02:38.394Z,99245.78
2022-12-01T18:05:07.442Z,99251.88
2022-12-01T18:07:35.534Z,99252.44
2022-12-01T18:10:05.435Z,99254.03
2022-12-01T18:12:33.433Z,99239.22
2022-12-01T18:15:01.636Z,99238.41
2022-12-01T18:17:29.672Z,99196.41
2022-12-01T18:19:57.645Z,99248.53
2022-12-01T18:22:25.749Z,99258.91
2022-12-01T18:24:53.798Z,99251.25
2022-12-01T18:27:24.200Z,99255.84
2022-12-01T18:29:52.254Z,99244.97
2022-12-01T18:32:20.327Z,99246.44
2022-12-01T18:34:48.669Z,99256.16
2022-12-01T18:37:16.918Z,99242.81
2022-12-01T18:39:45.143Z,99242.34
2022-12-01T18:42:13.236Z,99217.38
2022-12-01T18:44:43.240Z,99240.84
2022-12-01T18:47:11.376Z,99195.63
2022-12-01T18:49:39.420Z,99243.09
2022-12-01T18:52:07.506Z,99225.25
2022-12-01T18:54:35.883Z,99241.19
2022-12-01T18:57:03.931Z,99248.06
2022-12-01T18:59:31.958Z,99251.16
2022-12-01T19:02:01.497Z,99250.91
2022-12-01T19:04:29.568Z,99248.53
2022-12-01T19:06:57.578Z,99252.25
2022-12-01T19:09:25.615Z,99230.63
2022-12-01T19:11:59.835Z,99250.53
2022-12-01T19:14:29.218Z,99246.88
2022-12-01T19:16:57.716Z,99254.88
2022-12-01T19:19:27.524Z,99243.19
2022-12-01T19:21:55.817Z,99238.31
2022-12-01T19:24:23.966Z,99210.16
2022-12-01T19:26:51.997Z,99245.28
2022-12-01T19:29:20.153Z,99239.06
2022-12-01T19:31:48.240Z,99244.06
2022-12-01T19:34:16.330Z,99237.03
2022-12-01T19:36:45.749Z,99214.19
2022-12-01T19:39:13.828Z,99231.19
2022-12-01T19:41:41.868Z,99210.97
2022-12-01T19:44:11.412Z,99233.16
2022-12-01T19:46:40.306Z,99228.59
2022-12-01T19:49:09.195Z,99223.38
2022-12-01T19:51:39.845Z,99238.94
2022-12-01T19:54:14.045Z,99238.19
2022-12-01T19:56:42.065Z,99250.16
2022-12-01T19:59:11.680Z,99224.31
2022-12-01T20:01:40.095Z,99244.81
2022-12-01T20:04:08.670Z,99245.53
2022-12-01T20:06:38.233Z,99255.91
2022-12-01T20:09:08.370Z,99255.38
2022-12-01T20:11:38.605Z,99244.47
2022-12-01T20:14:08.196Z,99247.91
2022-12-01T20:16:36.383Z,99241.56
2022-12-01T20:19:05.842Z,99261.47
2022-12-01T20:21:35.706Z,99266.28
2022-12-01T20:24:05.697Z,99264.09
2022-12-01T20:26:35.699Z,99274.56
2022-12-01T20:29:07.526Z,99257.44
2022-12-01T20:31:36.970Z,99233.50
2022-12-01T20:34:10.774Z,99257.25
2022-12-01T20:36:39.545Z,99255.41
2022-12-01T20:39:09.080Z,99256.22
2022-12-01T20:41:37.378Z,99262.13
2022-12-01T20:44:07.832Z,99239.97
2022-12-01T20:46:36.358Z,99255.13
2022-12-01T20:49:05.909Z,99239.19
2022-12-01T20:51:34.335Z,99245.47
2022-12-01T20:56:50.714Z,99234.78
2022-12-01T20:59:20.177Z,99252.91
2022-12-01T21:01:48.286Z,99245.84
2022-12-01T21:04:16.361Z,99241.22
2022-12-01T21:06:44.492Z,99232.72
2022-12-01T21:09:13.295Z,99221.88
2022-12-01T21:12:03.769Z,99230.88
2022-12-01T21:14:38.488Z,99226.97
2022-12-01T21:17:17.305Z,99220.13
2022-12-01T21:19:50.770Z,99231.19
2022-12-01T21:22:20.256Z,99209.06
2022-12-01T21:24:51.849Z,99230.28
2022-12-01T21:27:20.138Z,99218.13
2022-12-01T21:29:51.221Z,99227.28
2022-12-01T21:32:22.803Z,99231.31
2022-12-01T21:34:52.160Z,99225.91
2022-12-01T21:37:23.185Z,99217.59
2022-12-01T21:39:54.026Z,99212.78
2022-12-01T21:42:26.164Z,99213.47
2022-12-01T21:44:57.725Z,99224.59
2022-12-01T21:47:28.553Z,99222.84
2022-12-01T21:49:59.505Z,99215.25
2022-12-01T21:52:33.934Z,99222.75
2022-12-01T21:55:03.528Z,99219.44
2022-12-01T21:57:42.856Z,99230.88
2022-12-01T22:00:29.811Z,99226.25
2022-12-01T22:03:23.140Z,99218.41
2022-12-01T22:06:21.223Z,99218.22
2022-12-01T22:08:44.036Z,99227.03
2022-12-01T22:11:18.674Z,99222.75
2022-12-01T22:13:48.592Z,99219.88
2022-12-01T22:16:23.123Z,99217.75
2022-12-01T22:18:53.064Z,99219.88
2022-12-01T22:21:33.514Z,99223.47
2022-12-01T22:24:16.717Z,99216.88
2022-12-01T22:26:47.920Z,99207.91
2022-12-01T22:29:29.332Z,99219.19
2022-12-01T22:32:29.084Z,99201.25
2022-12-01T22:35:01.493Z,99221.75
2022-12-01T22:37:35.614Z,99213.22
2022-12-01T22:40:23.677Z,99213.16
2022-12-01T22:42:51.672Z,99216.63
2022-12-01T22:45:24.705Z,99218.88
2022-12-01T22:48:00.931Z,99225.91
2022-12-01T22:50:31.115Z,99221.88
2022-12-01T22:53:03.513Z,99224.03
2022-12-01T22:55:31.493Z,99214.94
2022-12-01T22:57:59.591Z,99153.41
2022-12-01T23:00:27.790Z,99207.25
2022-12-01T23:02:57.622Z,99205.34
2022-12-01T23:05:27.548Z,99210.34
2022-12-01T23:07:56.222Z,99197.47
2022-12-01T23:10:26.486Z,99200.47
2022-12-01T23:12:56.282Z,99204.84
2022-12-01T23:15:30.488Z,99198.69
2022-12-01T23:18:01.049Z,99184.22
2022-12-01T23:20:34.258Z,99185.03
2022-12-01T23:23:04.235Z,99197.22
2022-12-01T23:25:32.861Z,99206.38
2022-12-01T23:28:05.148Z,99204.44
2022-12-01T23:30:33.450Z,99195.00
2022-12-01T23:33:12.717Z,99190.75
2022-12-01T23:35:47.788Z,99173.34
2022-12-01T23:38:18.508Z,99197.53
2022-12-01T23:40:46.883Z,99182.81
2022-12-01T23:43:20.707Z,99183.06
2022-12-01T23:45:49.727Z,99180.25
2022-12-01T23:48:23.205Z,99177.09
2022-12-01T23:50:54.016Z,99169.31
2022-12-01T23:53:28.379Z,99175.22
2022-12-01T23:55:57.870Z,99160.69
2022-12-01T23:58:26.036Z,99162.13
